Time;durP1;ratioP1;P1;durP2;ratioP2;P2;SDS_P1;SDS_P2;PMS_P1;PMS_P2;Temp;Humidity;BMP_temperature;BMP_pressure;BME280_temperature;BME280_humidity;BME280_pressure;Samples;Min_cycle;Max_cycle;Signal;HPM_P1;HPM_P2
2021/06/30 00:01:42;;;;;;;3.97;2.33;;;;;;;16.63;100.00;98324.09;4809315;29;105075;-78
2021/06/30 00:04:15;;;;;;;2.75;2.00;;;;;;;16.79;100.00;98318.84;4772940;29;104934;-78
2021/06/30 00:06:49;;;;;;;2.25;2.05;;;;;;;16.80;100.00;98315.19;4808591;29;103082;-79
2021/06/30 00:09:22;;;;;;;2.35;2.00;;;;;;;16.95;100.00;98328.78;4797695;29;103061;-79
2021/06/30 00:11:55;;;;;;;3.08;2.72;;;;;;;17.02;100.00;98328.97;4808180;29;103462;-78
2021/06/30 00:14:28;;;;;;;6.65;3.13;;;;;;;16.99;100.00;98330.13;4794200;29;106983;-78
2021/06/30 00:17:01;;;;;;;5.78;2.40;;;;;;;17.03;100.00;98323.47;4794005;29;103112;-78
2021/06/30 00:19:36;;;;;;;2.53;2.22;;;;;;;17.11;100.00;98322.66;4809427;29;103232;-78
2021/06/30 00:22:10;;;;;;;2.55;2.10;;;;;;;17.15;100.00;98314.16;4797251;29;104047;-79
2021/06/30 00:24:43;;;;;;;4.35;2.47;;;;;;;17.13;100.00;98312.66;4800495;29;103638;-78
2021/06/30 00:27:16;;;;;;;2.60;1.70;;;;;;;17.18;100.00;98318.34;4805961;29;103094;-80
2021/06/30 00:29:49;;;;;;;3.22;2.10;;;;;;;17.19;100.00;98325.38;4793719;29;103010;-78
2021/06/30 00:32:22;;;;;;;1.75;1.63;;;;;;;17.19;100.00;98320.03;4809204;29;103691;-78
2021/06/30 00:34:55;;;;;;;1.80;1.70;;;;;;;17.15;100.00;98316.03;4790949;29;104157;-78
2021/06/30 00:37:24;;;;;;;3.55;1.60;;;;;;;17.07;100.00;98315.97;4798127;29;103235;-80
2021/06/30 00:39:57;;;;;;;2.05;1.70;;;;;;;17.04;100.00;98318.97;4796968;29;103232;-78
2021/06/30 00:42:31;;;;;;;3.20;1.80;;;;;;;17.08;100.00;98317.66;4799337;29;104429;-80
2021/06/30 00:44:59;;;;;;;1.48;1.20;;;;;;;16.96;100.00;98314.44;4807887;29;103888;-78
2021/06/30 00:47:33;;;;;;;5.88;1.90;;;;;;;17.04;100.00;98318.97;4790127;29;102996;-80
2021/06/30 00:50:06;;;;;;;2.78;1.95;;;;;;;16.96;100.00;98324.25;4782664;29;103103;-78
2021/06/30 00:52:40;;;;;;;1.65;1.30;;;;;;;17.05;100.00;98325.97;4801058;29;107603;-78
2021/06/30 00:55:15;;;;;;;2.97;1.33;;;;;;;17.13;100.00;98320.66;4789972;29;103769;-80
2021/06/30 00:57:48;;;;;;;2.33;1.05;;;;;;;17.04;100.00;98321.66;4792823;29;103022;-79
2021/06/30 01:00:21;;;;;;;2.13;1.30;;;;;;;17.09;100.00;98333.53;4788020;29;102918;-78
2021/06/30 01:02:53;;;;;;;1.73;1.10;;;;;;;17.10;100.00;98337.84;4792493;29;105936;-78
2021/06/30 01:05:26;;;;;;;0.95;0.85;;;;;;;17.04;100.00;98333.13;4809411;29;103185;-79
2021/06/30 01:08:01;;;;;;;1.42;1.33;;;;;;;16.98;100.00;98343.63;4791892;29;102958;-79
2021/06/30 01:10:34;;;;;;;2.00;1.30;;;;;;;17.08;100.00;98341.66;4782388;29;103093;-78
2021/06/30 01:13:07;;;;;;;1.25;0.90;;;;;;;17.16;100.00;98339.88;4787040;29;104684;-77
2021/06/30 01:15:54;;;;;;;1.00;0.90;;;;;;;17.23;100.00;98346.25;4790952;29;105483;-78
2021/06/30 01:18:30;;;;;;;1.27;0.93;;;;;;;17.25;100.00;98351.41;4798123;29;102834;-80
2021/06/30 01:21:06;;;;;;;2.03;1.10;;;;;;;17.29;100.00;98353.59;4809913;29;102932;-81
2021/06/30 01:23:41;;;;;;;1.08;1.02;;;;;;;17.33;100.00;98351.44;4791254;29;104671;-80
2021/06/30 01:26:14;;;;;;;2.30;1.00;;;;;;;17.25;99.83;98359.44;4808099;29;103103;-81
2021/06/30 01:28:47;;;;;;;1.80;1.02;;;;;;;17.08;98.13;98360.34;4794564;29;103070;-78
2021/06/30 01:31:20;;;;;;;2.60;0.90;;;;;;;17.12;97.94;98361.72;4800566;29;103135;-78
2021/06/30 01:33:53;;;;;;;0.90;0.90;;;;;;;17.09;96.75;98356.69;4791723;29;103500;-81
2021/06/30 01:36:26;;;;;;;0.70;0.70;;;;;;;17.06;95.97;98362.34;4795395;29;106408;-78
2021/06/30 01:39:00;;;;;;;0.75;0.75;;;;;;;16.98;96.08;98362.31;4778025;29;103014;-81
2021/06/30 01:41:33;;;;;;;1.75;0.90;;;;;;;16.98;95.55;98364.97;4803205;29;102832;-79
2021/06/30 01:44:07;;;;;;;0.70;0.70;;;;;;;17.00;95.35;98362.97;4807110;29;104120;-78
2021/06/30 01:46:41;;;;;;;2.20;0.90;;;;;;;16.79;95.77;98361.53;4788193;29;105325;-79
2021/06/30 01:49:09;;;;;;;1.30;0.80;;;;;;;16.89;95.88;98363.25;4793669;29;102909;-78
2021/06/30 01:51:42;;;;;;;0.80;0.80;;;;;;;16.92;95.75;98361.13;4764830;29;103000;-79
2021/06/30 01:54:16;;;;;;;3.50;1.10;;;;;;;16.90;95.92;98357.75;4803748;29;104298;-79
2021/06/30 01:56:50;;;;;;;1.27;0.80;;;;;;;16.71;96.01;98355.31;4796927;29;103310;-79
2021/06/30 01:59:23;;;;;;;6.25;0.90;;;;;;;16.75;96.28;98354.00;4808640;29;103153;-79
2021/06/30 02:01:55;;;;;;;3.65;0.80;;;;;;;16.81;96.28;98348.88;4778794;29;104495;-79
2021/06/30 02:04:27;;;;;;;1.65;0.80;;;;;;;16.81;95.87;98343.53;4808991;29;103499;-79
2021/06/30 02:06:59;;;;;;;2.35;0.88;;;;;;;16.64;97.88;98340.94;4801366;29;103297;-79
2021/06/30 02:09:34;;;;;;;2.45;0.70;;;;;;;16.70;97.02;98349.13;4803194;29;105753;-79
2021/06/30 02:12:07;;;;;;;0.55;0.55;;;;;;;16.77;96.70;98334.19;4787670;29;103394;-79
2021/06/30 02:14:40;;;;;;;3.25;0.80;;;;;;;16.83;96.28;98326.53;4800261;29;104919;-79
2021/06/30 02:17:16;;;;;;;1.90;0.60;;;;;;;16.74;96.91;98321.16;4810027;29;103794;-79
2021/06/30 02:19:49;;;;;;;2.65;0.80;;;;;;;16.57;98.17;98330.06;4795140;29;103271;-79
2021/06/30 02:22:22;;;;;;;1.73;0.60;;;;;;;16.52;98.18;98343.00;4781175;29;103263;-79
2021/06/30 02:24:58;;;;;;;2.15;0.70;;;;;;;16.54;99.20;98333.03;4784554;29;103879;-79
2021/06/30 02:27:31;;;;;;;0.60;0.60;;;;;;;16.55;98.46;98342.72;4802724;29;103299;-81
2021/06/30 02:30:05;;;;;;;1.40;0.60;;;;;;;16.44;98.07;98345.63;4796472;29;103108;-81
2021/06/30 02:32:39;;;;;;;0.50;0.50;;;;;;;16.53;97.97;98344.69;4794752;29;103104;-81
2021/06/30 02:35:14;;;;;;;0.47;0.43;;;;;;;16.57;97.69;98346.06;4777113;29;103781;-81
2021/06/30 02:37:48;;;;;;;1.17;0.70;;;;;;;16.61;97.60;98352.75;4784337;29;106466;-79
2021/06/30 02:40:24;;;;;;;0.37;0.37;;;;;;;16.56;97.98;98352.38;4801844;29;102574;-79
2021/06/30 02:42:57;;;;;;;0.80;0.40;;;;;;;16.56;97.46;98359.56;4756299;29;103256;-78
2021/06/30 02:45:30;;;;;;;0.50;0.45;;;;;;;16.51;97.84;98357.31;4783003;29;105535;-78
2021/06/30 02:48:04;;;;;;;1.08;0.85;;;;;;;16.38;97.30;98359.56;4791788;29;104909;-79
2021/06/30 02:50:37;;;;;;;0.52;0.52;;;;;;;16.20;96.77;98364.06;4779297;29;102600;-78
2021/06/30 02:53:10;;;;;;;0.50;0.50;;;;;;;16.14;98.57;98364.72;4807324;29;102765;-78
2021/06/30 02:55:44;;;;;;;0.70;0.60;;;;;;;16.23;98.00;98359.28;4797843;29;103348;-79
2021/06/30 02:58:17;;;;;;;1.48;0.60;;;;;;;16.08;97.23;98360.00;4809865;29;103394;-79
2021/06/30 03:00:50;;;;;;;0.47;0.40;;;;;;;15.97;98.14;98370.88;4795476;29;102728;-79
2021/06/30 03:03:22;;;;;;;1.75;0.70;;;;;;;16.07;97.41;98363.63;4787664;29;102934;-79
2021/06/30 03:05:55;;;;;;;2.00;0.60;;;;;;;16.13;97.59;98365.69;4799745;29;103606;-78
2021/06/30 03:08:28;;;;;;;0.63;0.60;;;;;;;16.01;96.94;98365.09;4785426;29;107104;-78
2021/06/30 03:11:03;;;;;;;0.93;0.60;;;;;;;15.90;96.59;98367.13;4799247;29;103018;-78
2021/06/30 03:13:35;;;;;;;0.67;0.50;;;;;;;15.86;96.59;98368.44;4794814;29;103110;-78
2021/06/30 03:16:08;;;;;;;0.43;0.43;;;;;;;15.77;95.97;98369.34;4797577;29;103137;-79
2021/06/30 03:18:41;;;;;;;0.60;0.50;;;;;;;15.80;95.36;98361.91;4822379;29;103112;-79
2021/06/30 03:21:14;;;;;;;1.10;0.50;;;;;;;15.73;95.97;98362.63;4796954;29;102130;-79
2021/06/30 03:23:47;;;;;;;0.40;0.40;;;;;;;15.79;95.17;98359.38;4798875;29;103356;-79
2021/06/30 03:26:22;;;;;;;0.60;0.50;;;;;;;15.71;95.10;98364.63;4801794;29;103229;-79
2021/06/30 03:28:55;;;;;;;0.67;0.30;;;;;;;15.58;95.66;98368.47;4795025;29;103937;-80
2021/06/30 03:31:27;;;;;;;2.20;0.47;;;;;;;15.55;95.30;98363.44;4806730;29;103093;-78
2021/06/30 03:34:01;;;;;;;1.53;0.40;;;;;;;15.54;95.54;98356.47;4809973;29;103186;-79
2021/06/30 03:36:34;;;;;;;0.60;0.40;;;;;;;15.57;95.42;98365.97;4792951;29;104401;-79
2021/06/30 03:39:07;;;;;;;0.30;0.20;;;;;;;15.56;94.21;98365.13;4801168;29;103281;-79
2021/06/30 03:41:41;;;;;;;0.90;0.63;;;;;;;15.33;93.37;98362.97;4798178;29;102758;-80
2021/06/30 03:44:14;;;;;;;1.23;0.40;;;;;;;15.28;94.73;98370.59;4792850;29;103370;-79
2021/06/30 03:46:47;;;;;;;0.60;0.40;;;;;;;15.34;94.34;98365.50;4802219;29;103382;-79
2021/06/30 03:49:15;;;;;;;0.37;0.30;;;;;;;15.46;94.45;98375.00;4801978;29;103463;-77
2021/06/30 03:51:48;;;;;;;0.40;0.40;;;;;;;15.43;95.00;98363.78;4795430;29;102796;-74
2021/06/30 03:54:24;;;;;;;0.80;0.60;;;;;;;15.35;94.50;98371.69;4780926;29;103059;-78
2021/06/30 03:56:58;;;;;;;1.33;0.43;;;;;;;15.33;94.63;98378.94;4812345;29;103905;-79
2021/06/30 03:59:31;;;;;;;0.70;0.40;;;;;;;15.29;94.37;98383.75;4794491;29;103925;-81
2021/06/30 04:02:04;;;;;;;0.50;0.40;;;;;;;15.27;94.20;98383.03;4757961;29;103242;-81
2021/06/30 04:04:37;;;;;;;0.50;0.40;;;;;;;15.32;94.56;98388.78;4761944;29;103311;-83
2021/06/30 04:07:11;;;;;;;0.43;0.40;;;;;;;15.36;94.23;98394.63;4790189;29;103678;-82
2021/06/30 04:09:44;;;;;;;0.90;0.37;;;;;;;15.26;94.03;98401.84;4796145;29;105484;-83
2021/06/30 04:12:18;;;;;;;0.80;0.50;;;;;;;15.22;94.61;98393.31;4796656;29;103386;-81
2021/06/30 04:14:51;;;;;;;0.50;0.40;;;;;;;15.12;94.77;98392.50;4795892;29;103055;-83
2021/06/30 04:17:24;;;;;;;1.37;0.50;;;;;;;15.24;94.71;98396.63;4805034;29;104032;-75
2021/06/30 04:19:58;;;;;;;0.97;0.40;;;;;;;15.34;94.39;98399.28;4807463;29;103759;-81
2021/06/30 04:22:27;;;;;;;0.40;0.40;;;;;;;15.48;94.34;98394.31;4791542;29;103697;-83
2021/06/30 04:24:55;;;;;;;0.30;0.30;;;;;;;15.55;93.66;98391.91;4795720;29;103701;-81
2021/06/30 04:27:29;;;;;;;0.63;0.50;;;;;;;15.48;94.34;98388.16;4803122;29;104371;-78
2021/06/30 04:30:07;;;;;;;0.47;0.30;;;;;;;15.15;94.18;98394.88;4783369;29;104784;-79
2021/06/30 04:32:39;;;;;;;1.03;0.40;;;;;;;15.33;95.12;98390.44;4800349;29;103106;-81
2021/06/30 04:35:12;;;;;;;1.07;0.60;;;;;;;15.56;94.57;98390.91;4799818;29;103106;-82
2021/06/30 04:37:45;;;;;;;0.67;0.50;;;;;;;15.64;94.40;98394.50;4792285;29;103184;-84
2021/06/30 04:40:18;;;;;;;0.40;0.40;;;;;;;15.76;94.16;98392.47;4779289;29;103316;-85
2021/06/30 04:42:48;;;;;;;1.17;0.40;;;;;;;15.57;95.10;98396.09;4806851;29;103195;-82
2021/06/30 04:45:21;;;;;;;0.30;0.30;;;;;;;15.64;95.80;98397.16;4803748;29;102992;-80
2021/06/30 04:47:54;;;;;;;0.77;0.30;;;;;;;15.75;93.83;98397.97;4797690;29;104218;-81
2021/06/30 04:50:27;;;;;;;2.23;0.40;;;;;;;15.77;93.22;98398.63;4793578;29;103730;-78
2021/06/30 04:53:00;;;;;;;2.70;0.90;;;;;;;15.81;92.58;98398.19;4785376;29;102921;-79
2021/06/30 04:55:33;;;;;;;0.53;0.47;;;;;;;15.86;90.12;98408.41;4765431;29;104343;-81
2021/06/30 04:58:08;;;;;;;1.60;0.50;;;;;;;15.94;92.04;98396.00;4790412;29;103948;-77
2021/06/30 05:00:42;;;;;;;1.30;0.43;;;;;;;16.02;91.90;98392.56;4770746;29;104051;-86
2021/06/30 05:03:15;;;;;;;0.83;0.47;;;;;;;16.12;91.19;98393.31;4788407;29;103154;-81
2021/06/30 05:05:48;;;;;;;0.53;0.50;;;;;;;16.22;90.08;98394.09;4785616;29;103024;-78
2021/06/30 05:08:21;;;;;;;1.07;0.50;;;;;;;16.31;89.55;98389.66;4793800;29;103955;-80
2021/06/30 05:10:54;;;;;;;2.77;0.40;;;;;;;16.42;89.50;98378.75;4785456;29;104451;-82
2021/06/30 05:13:28;;;;;;;1.10;0.30;;;;;;;16.59;90.47;98385.91;4778560;29;103616;-83
2021/06/30 05:16:01;;;;;;;0.40;0.40;;;;;;;16.72;88.10;98386.34;4796994;29;103177;-81
2021/06/30 05:18:35;;;;;;;0.50;0.50;;;;;;;16.71;88.83;98388.16;4788001;29;104365;-78
2021/06/30 05:21:08;;;;;;;0.33;0.33;;;;;;;16.83;88.17;98383.41;4786913;29;104584;-78
2021/06/30 05:23:36;;;;;;;1.30;0.47;;;;;;;16.80;87.84;98384.56;4787122;29;103358;-75
2021/06/30 05:26:04;;;;;;;1.70;0.40;;;;;;;16.60;86.84;98390.25;4786694;29;103196;-78
2021/06/30 05:28:38;;;;;;;0.80;0.30;;;;;;;16.82;86.34;98395.06;4799602;29;103814;-76
2021/06/30 05:31:11;;;;;;;1.80;0.47;;;;;;;16.80;85.70;98394.38;4795932;29;104611;-76
2021/06/30 05:33:44;;;;;;;1.37;0.40;;;;;;;16.72;86.53;98391.66;4801485;29;104179;-77
2021/06/30 05:36:17;;;;;;;1.37;0.40;;;;;;;16.55;85.84;98401.38;4786097;29;103361;-80
2021/06/30 05:38:50;;;;;;;0.40;0.30;;;;;;;16.81;85.52;98391.53;4779324;29;103979;-82
2021/06/30 05:41:23;;;;;;;1.80;0.40;;;;;;;16.88;85.76;98401.59;4799063;29;104426;-78
2021/06/30 05:43:52;;;;;;;0.40;0.30;;;;;;;17.20;86.41;98396.44;4802786;29;103026;-84
2021/06/30 05:46:25;;;;;;;0.20;0.20;;;;;;;17.29;84.32;98398.97;4760978;29;103205;-84
2021/06/30 05:48:58;;;;;;;2.00;0.50;;;;;;;17.52;84.48;98393.06;4793004;29;105809;-80
2021/06/30 05:51:31;;;;;;;0.70;0.50;;;;;;;17.65;83.88;98394.34;4797047;29;103128;-80
2021/06/30 05:54:00;;;;;;;0.43;0.43;;;;;;;17.67;83.08;98400.34;4787063;29;103126;-81
2021/06/30 05:56:33;;;;;;;0.60;0.50;;;;;;;17.81;83.96;98402.38;4791402;29;103008;-80
2021/06/30 05:59:07;;;;;;;1.40;0.60;;;;;;;17.50;82.59;98406.59;4777573;29;104244;-81
2021/06/30 06:01:40;;;;;;;0.90;0.60;;;;;;;17.58;83.02;98405.81;4773107;29;104178;-80
2021/06/30 06:04:13;;;;;;;0.82;0.60;;;;;;;17.46;83.81;98412.44;4786407;29;103210;-81
2021/06/30 06:06:46;;;;;;;1.67;0.50;;;;;;;17.44;83.09;98404.56;4797435;29;103282;-79
2021/06/30 06:09:19;;;;;;;1.35;0.50;;;;;;;17.33;82.52;98408.34;4779746;29;104869;-83
2021/06/30 06:11:52;;;;;;;0.60;0.50;;;;;;;17.53;82.62;98405.44;4769942;29;103389;-78
2021/06/30 06:14:27;;;;;;;1.05;0.57;;;;;;;17.60;82.06;98414.50;4801361;29;103340;-78
2021/06/30 06:17:00;;;;;;;0.85;0.68;;;;;;;17.77;81.38;98406.38;4802126;29;103033;-78
2021/06/30 06:19:33;;;;;;;2.97;0.50;;;;;;;17.64;81.50;98406.00;4788260;29;103619;-77
2021/06/30 06:22:06;;;;;;;0.50;0.40;;;;;;;17.83;82.08;98408.41;4790017;29;104390;-76
2021/06/30 06:24:40;;;;;;;0.45;0.40;;;;;;;17.95;81.92;98404.41;4789388;29;103984;-80
2021/06/30 06:27:13;;;;;;;0.68;0.50;;;;;;;18.16;80.18;98408.47;4786648;29;103142;-79
2021/06/30 06:29:43;;;;;;;0.70;0.50;;;;;;;18.33;80.87;98408.28;4780911;29;104385;-78
2021/06/30 06:32:16;;;;;;;0.75;0.57;;;;;;;18.29;79.88;98412.31;4777346;29;104464;-78
2021/06/30 06:34:49;;;;;;;2.15;0.50;;;;;;;18.06;80.66;98415.78;4801502;29;103185;-81
2021/06/30 06:37:22;;;;;;;0.73;0.40;;;;;;;18.20;80.11;98401.78;4745458;29;103858;-78
2021/06/30 06:39:56;;;;;;;0.40;0.40;;;;;;;18.60;77.95;98404.50;4764938;29;108175;-77
2021/06/30 06:42:31;;;;;;;0.40;0.40;;;;;;;18.74;77.72;98401.13;4801956;29;104482;-77
2021/06/30 06:45:00;;;;;;;2.15;0.40;;;;;;;18.52;76.69;98397.31;4805686;29;103331;-78
2021/06/30 06:47:33;;;;;;;1.85;0.50;;;;;;;18.35;77.81;98400.13;4789890;29;103462;-79
2021/06/30 06:50:07;;;;;;;0.88;0.50;;;;;;;18.44;78.49;98397.25;4791666;29;103443;-76
2021/06/30 06:52:40;;;;;;;3.45;0.60;;;;;;;18.59;76.70;98408.16;4773124;29;110523;-77
2021/06/30 06:55:14;;;;;;;0.85;0.50;;;;;;;18.84;76.45;98401.78;4773025;29;103330;-77
2021/06/30 06:57:46;;;;;;;1.50;0.60;;;;;;;18.76;76.47;98395.59;4793710;29;103590;-77
2021/06/30 07:00:22;;;;;;;1.38;0.45;;;;;;;19.04;75.18;98397.72;4801536;29;104658;-77
2021/06/30 07:02:55;;;;;;;1.08;0.65;;;;;;;19.37;75.73;98398.44;4802444;29;106479;-78
2021/06/30 07:05:28;;;;;;;0.50;0.45;;;;;;;19.46;73.09;98405.47;4808538;29;103712;-77
2021/06/30 07:07:56;;;;;;;0.50;0.40;;;;;;;19.20;75.42;98401.38;4799260;29;103196;-79
2021/06/30 07:10:29;;;;;;;1.52;0.50;;;;;;;19.23;76.18;98407.19;4797180;29;104177;-80
2021/06/30 07:13:02;;;;;;;3.13;0.60;;;;;;;19.06;74.40;98401.06;4795321;29;104849;-72
2021/06/30 07:15:38;;;;;;;0.93;0.30;;;;;;;19.01;73.85;98403.41;4785297;29;103303;-72
2021/06/30 07:18:15;;;;;;;0.82;0.40;;;;;;;19.21;73.92;98403.03;4771247;29;103242;-72
2021/06/30 07:20:49;;;;;;;0.60;0.30;;;;;;;19.03;72.64;98390.69;4794291;29;103877;-74
2021/06/30 07:23:22;;;;;;;1.58;0.35;;;;;;;19.27;72.50;98410.38;4795517;29;103739;-72
2021/06/30 07:25:55;;;;;;;0.40;0.40;;;;;;;19.27;73.43;98408.53;4815790;29;103098;-72
2021/06/30 07:28:25;;;;;;;0.43;0.40;;;;;;;18.82;71.68;98403.81;4806891;29;103255;-72
2021/06/30 07:31:00;;;;;;;0.75;0.50;;;;;;;19.29;72.77;98403.00;4806052;29;104562;-72
2021/06/30 07:33:33;;;;;;;1.52;0.35;;;;;;;19.59;72.47;98402.25;4806588;29;104475;-73
2021/06/30 07:36:10;;;;;;;1.40;0.40;;;;;;;20.07;70.76;98406.53;4797156;29;103131;-72
2021/06/30 07:38:45;;;;;;;1.35;0.35;;;;;;;19.77;69.83;98402.00;4783325;29;103345;-72
2021/06/30 07:41:18;;;;;;;0.50;0.50;;;;;;;20.17;69.09;98405.28;4789252;29;106154;-72
2021/06/30 07:43:46;;;;;;;0.95;0.30;;;;;;;20.19;68.84;98405.91;4801952;29;103696;-72
2021/06/30 07:46:16;;;;;;;1.38;0.40;;;;;;;19.96;67.49;98399.69;4788597;29;103421;-78
2021/06/30 07:48:44;;;;;;;0.40;0.30;;;;;;;20.15;67.77;98393.88;4789124;29;103048;-78
2021/06/30 07:51:13;;;;;;;0.30;0.30;;;;;;;19.90;69.69;98400.41;4795361;29;103543;-78
2021/06/30 07:53:42;;;;;;;0.20;0.20;;;;;;;19.82;70.03;98402.31;4778376;29;105353;-78
2021/06/30 07:56:12;;;;;;;3.03;0.60;;;;;;;19.84;67.52;98395.78;4806298;29;103137;-78
2021/06/30 07:58:40;;;;;;;0.85;0.40;;;;;;;20.23;67.23;98388.47;4806684;29;103240;-77
2021/06/30 08:01:08;;;;;;;0.43;0.25;;;;;;;20.74;66.00;98394.09;4804681;29;103178;-82
2021/06/30 08:03:42;;;;;;;1.15;0.57;;;;;;;21.27;64.06;98390.38;4799424;29;104289;-81
2021/06/30 08:06:10;;;;;;;0.77;0.50;;;;;;;21.73;62.91;98389.13;4804476;29;103417;-81
2021/06/30 08:08:38;;;;;;;0.47;0.30;;;;;;;21.52;61.62;98394.44;4787958;29;103115;-82
2021/06/30 08:11:06;;;;;;;1.02;0.32;;;;;;;21.45;62.49;98388.13;4790410;29;104362;-82
2021/06/30 08:13:34;;;;;;;2.08;0.30;;;;;;;22.38;60.29;98385.50;4764591;29;104516;-81
2021/06/30 08:16:03;;;;;;;0.75;0.38;;;;;;;22.62;60.30;98386.97;4788954;29;103427;-76
2021/06/30 08:18:31;;;;;;;0.60;0.35;;;;;;;22.49;58.07;98383.13;4805732;29;103069;-80
2021/06/30 08:21:00;;;;;;;0.20;0.20;;;;;;;22.33;59.27;98388.78;4773624;29;105282;-87
2021/06/30 08:23:29;;;;;;;0.20;0.20;;;;;;;21.79;61.51;98390.22;4779730;29;104386;-83
2021/06/30 08:25:57;;;;;;;1.75;0.30;;;;;;;20.91;62.90;98400.16;4779933;29;103658;-82
2021/06/30 08:28:26;;;;;;;1.30;0.50;;;;;;;20.53;64.12;98399.31;4782472;29;103349;-83
2021/06/30 08:30:55;;;;;;;0.50;0.50;;;;;;;20.90;64.36;98399.31;4770058;29;104672;-83
2021/06/30 08:33:24;;;;;;;0.20;0.20;;;;;;;21.00;63.40;98393.66;4791054;29;104029;-83
2021/06/30 08:35:54;;;;;;;0.35;0.30;;;;;;;20.47;63.93;98402.72;4787285;29;103046;-83
2021/06/30 08:38:24;;;;;;;1.25;0.30;;;;;;;19.87;68.06;98416.88;4800119;29;105221;-83
2021/06/30 08:40:54;;;;;;;2.03;0.60;;;;;;;19.82;68.47;98419.22;4795868;29;104433;-82
2021/06/30 08:43:22;;;;;;;0.50;0.30;;;;;;;19.63;69.87;98425.00;4798205;29;103832;-83
2021/06/30 08:45:50;;;;;;;0.30;0.30;;;;;;;19.48;71.50;98416.03;4787881;29;103074;-82
2021/06/30 08:48:20;;;;;;;0.30;0.30;;;;;;;19.73;72.31;98420.28;4797992;29;104637;-83
2021/06/30 08:50:49;;;;;;;1.95;0.50;;;;;;;20.20;71.16;98412.97;4796269;29;105130;-84
2021/06/30 08:53:20;;;;;;;1.25;0.73;;;;;;;19.89;73.32;98419.34;4790089;29;103720;-82
2021/06/30 08:55:50;;;;;;;0.70;0.60;;;;;;;20.12;73.96;98426.44;4798753;29;103277;-82
2021/06/30 08:58:18;;;;;;;1.58;0.57;;;;;;;20.13;73.29;98422.72;4770824;29;103218;-83
2021/06/30 09:00:47;;;;;;;1.15;0.50;;;;;;;20.60;71.00;98408.31;4788640;29;106893;-83
2021/06/30 09:03:17;;;;;;;0.30;0.20;;;;;;;20.17;71.34;98424.03;4795709;29;107090;-82
2021/06/30 09:08:57;;;;;;;1.33;0.30;;;;;;;20.91;67.79;98411.72;4789716;29;103044;-82
2021/06/30 09:11:28;;;;;;;1.10;0.47;;;;;;;20.72;67.37;98406.84;4799467;29;105165;-81
2021/06/30 09:14:22;;;;;;;0.40;0.30;;;;;;;20.50;68.31;98411.25;4810070;29;103835;-82
2021/06/30 09:17:14;;;;;;;0.50;0.40;;;;;;;20.00;67.45;98421.63;4802273;29;103131;-83
2021/06/30 09:20:02;;;;;;;0.47;0.40;;;;;;;20.05;68.05;98422.78;4791062;29;103002;-83
2021/06/30 09:22:41;;;;;;;0.95;0.30;;;;;;;20.07;68.87;98422.63;4803849;29;104354;-83
2021/06/30 09:25:32;;;;;;;0.40;0.20;;;;;;;19.97;69.30;98422.81;4815937;29;104441;-83
2021/06/30 09:28:13;;;;;;;1.02;0.35;;;;;;;19.78;70.29;98423.28;4811264;29;102557;-82
2021/06/30 09:30:56;;;;;;;0.77;0.35;;;;;;;20.05;70.16;98427.28;4790634;29;103630;-83
2021/06/30 09:33:24;;;;;;;1.17;0.40;;;;;;;20.31;70.19;98422.47;4784668;29;105090;-79
2021/06/30 09:36:04;;;;;;;0.20;0.20;;;;;;;20.93;68.13;98425.81;4810231;29;105183;-80
2021/06/30 09:38:33;;;;;;;0.60;0.30;;;;;;;21.09;67.54;98414.91;4809680;29;103245;-78
2021/06/30 09:41:01;;;;;;;0.57;0.40;;;;;;;20.93;66.78;98416.91;4800890;29;103326;-80
2021/06/30 09:43:33;;;;;;;0.40;0.30;;;;;;;21.37;65.95;98413.25;4809140;29;103143;-77
2021/06/30 09:46:16;;;;;;;0.38;0.38;;;;;;;22.68;63.25;98413.16;4797632;29;104374;-77
2021/06/30 09:48:45;;;;;;;0.52;0.50;;;;;;;22.61;62.47;98412.22;4803165;29;103154;-75
2021/06/30 09:51:18;;;;;;;0.20;0.20;;;;;;;22.59;61.80;98414.28;4794179;29;103465;-77
2021/06/30 09:53:47;;;;;;;1.45;0.30;;;;;;;22.52;61.00;98409.66;4796558;29;105341;-79
2021/06/30 09:59:21;;;;;;;0.40;0.40;;;;;;;21.58;62.44;98417.06;4809029;29;103113;-78
2021/06/30 10:01:56;;;;;;;0.30;0.30;;;;;;;21.52;64.67;98415.94;4803205;29;105220;-79
2021/06/30 10:04:28;;;;;;;1.30;0.40;;;;;;;21.35;66.84;98415.31;4801437;29;104026;-78
2021/06/30 10:06:58;;;;;;;1.58;0.43;;;;;;;21.08;69.48;98413.25;4807921;29;105125;-78
2021/06/30 10:09:26;;;;;;;1.00;0.50;;;;;;;20.92;70.39;98402.66;4804344;29;103272;-77
2021/06/30 10:12:00;;;;;;;0.98;0.60;;;;;;;20.97;72.42;98410.97;4790660;29;104379;-77
2021/06/30 10:14:29;;;;;;;1.50;0.52;;;;;;;21.80;72.68;98402.66;4783431;29;104615;-77
2021/06/30 10:16:58;;;;;;;0.95;0.50;;;;;;;22.20;69.27;98404.81;4810565;29;102765;-77
2021/06/30 10:19:28;;;;;;;0.60;0.50;;;;;;;23.21;67.32;98404.44;4813662;29;102580;-77
2021/06/30 10:21:57;;;;;;;1.55;0.52;;;;;;;22.96;66.67;98400.53;4810082;29;105472;-78
2021/06/30 10:24:25;;;;;;;0.45;0.32;;;;;;;22.84;63.28;98408.31;4796457;29;103506;-77
2021/06/30 10:26:54;;;;;;;0.38;0.30;;;;;;;23.19;63.52;98409.16;4809335;29;103834;-78
2021/06/30 10:29:30;;;;;;;0.60;0.30;;;;;;;22.75;62.09;98408.63;4803031;29;102897;-77
2021/06/30 10:32:01;;;;;;;0.43;0.40;;;;;;;23.21;62.86;98409.81;4792874;29;103505;-76
2021/06/30 10:34:41;;;;;;;0.63;0.30;;;;;;;23.21;60.13;98407.13;4800899;29;106877;-78
2021/06/30 10:37:21;;;;;;;0.50;0.30;;;;;;;23.92;57.93;98402.28;4791033;29;103151;-77
2021/06/30 10:39:51;;;;;;;0.35;0.30;;;;;;;23.76;59.75;98408.06;4790944;29;102911;-77
2021/06/30 10:42:23;;;;;;;0.50;0.40;;;;;;;24.20;57.83;98394.94;4806923;29;104879;-77
2021/06/30 10:44:54;;;;;;;4.95;0.68;;;;;;;24.05;56.99;98391.56;4806762;29;104754;-77
2021/06/30 10:47:33;;;;;;;0.20;0.20;;;;;;;23.70;59.36;98395.38;4802418;29;103713;-77
2021/06/30 10:50:26;;;;;;;0.40;0.25;;;;;;;23.90;56.53;98393.59;4789566;29;103047;-78
2021/06/30 10:52:56;;;;;;;1.35;0.55;;;;;;;23.39;59.37;98385.06;4796333;29;103202;-78
2021/06/30 10:55:50;;;;;;;0.73;0.30;;;;;;;23.22;58.18;98384.53;4791118;29;105025;-79
2021/06/30 10:58:20;;;;;;;0.93;0.57;;;;;;;23.02;60.27;98383.56;4799108;29;113232;-79
2021/06/30 11:00:52;;;;;;;0.73;0.40;;;;;;;22.75;61.00;98384.41;4784168;29;104083;-77
2021/06/30 11:03:31;;;;;;;0.90;0.80;;;;;;;22.94;59.54;98391.78;4770091;29;102983;-76
2021/06/30 11:06:37;;;;;;;1.75;0.57;;;;;;;22.64;59.37;98390.31;4789009;29;103383;-76
2021/06/30 11:09:09;;;;;;;0.40;0.40;;;;;;;22.68;60.77;98387.03;4785709;29;104534;-76
2021/06/30 11:11:54;;;;;;;2.25;0.47;;;;;;;22.30;65.42;98382.94;4788364;29;103032;-76
2021/06/30 11:14:38;;;;;;;0.50;0.50;;;;;;;22.84;62.68;98383.25;4789532;29;103226;-78
2021/06/30 11:17:08;;;;;;;1.17;0.52;;;;;;;22.26;61.99;98387.88;4802818;29;104947;-78
2021/06/30 11:19:47;;;;;;;0.65;0.50;;;;;;;22.62;62.66;98384.28;4778711;29;103736;-79
2021/06/30 11:22:30;;;;;;;2.38;0.43;;;;;;;22.41;60.34;98385.13;4793642;29;103641;-78
2021/06/30 11:25:03;;;;;;;0.85;0.50;;;;;;;23.27;57.42;98383.94;4795238;29;104966;-81
2021/06/30 11:27:43;;;;;;;0.77;0.57;;;;;;;23.15;57.01;98380.97;4795157;29;103727;-81
2021/06/30 11:30:13;;;;;;;0.43;0.40;;;;;;;23.95;55.08;98364.97;4802116;29;103607;-80
2021/06/30 11:32:48;;;;;;;0.40;0.40;;;;;;;23.03;56.19;98369.91;4772358;29;103726;-80
2021/06/30 11:35:32;;;;;;;0.65;0.40;;;;;;;22.71;55.84;98359.72;4789891;29;103360;-78
2021/06/30 11:38:11;;;;;;;0.45;0.40;;;;;;;22.54;58.25;98363.69;4784981;29;104099;-80
2021/06/30 11:43:29;;;;;;;0.55;0.50;;;;;;;22.91;60.97;98358.00;4773209;29;103871;-76
2021/06/30 11:45:59;;;;;;;1.10;0.68;;;;;;;22.64;60.80;98364.25;4781510;29;108132;-75
2021/06/30 11:48:32;;;;;;;0.43;0.40;;;;;;;22.57;60.28;98366.00;4796234;29;105359;-77
2021/06/30 11:51:01;;;;;;;0.80;0.43;;;;;;;22.68;58.82;98360.13;4790459;29;103343;-74
2021/06/30 11:53:45;;;;;;;1.95;0.47;;;;;;;22.49;59.86;98372.34;4785497;29;103393;-74
2021/06/30 11:56:33;;;;;;;0.68;0.40;;;;;;;22.30;60.12;98362.25;4793660;29;103278;-74
2021/06/30 11:59:04;;;;;;;1.77;0.82;;;;;;;22.62;59.49;98354.66;4777347;29;105020;-75
2021/06/30 12:01:33;;;;;;;0.47;0.40;;;;;;;22.50;57.46;98363.28;4788756;29;103707;-75